sensor_id;sensor_type;location;lat;lon;timestamp;temperature;humidity
53653;DHT22;39553;52.954;5.932;2023-07-08T17:20:49;32.10;4.60
53653;DHT22;39553;52.954;5.932;2023-07-08T17:23:17;31.70;3.70
53653;DHT22;39553;52.954;5.932;2023-07-08T17:25:44;31.90;3.90
53653;DHT22;39553;52.954;5.932;2023-07-08T17:28:11;32.10;4.20
53653;DHT22;39553;52.954;5.932;2023-07-08T17:30:39;32.30;4.30
53653;DHT22;39553;52.954;5.932;2023-07-08T17:33:15;32.50;4.40
53653;DHT22;39553;52.954;5.932;2023-07-08T17:35:41;32.80;4.30
53653;DHT22;39553;52.954;5.932;2023-07-08T17:38:12;32.90;3.90
53653;DHT22;39553;52.954;5.932;2023-07-08T17:40:38;33.10;4.10
53653;DHT22;39553;52.954;5.932;2023-07-08T17:43:04;33.10;3.70
53653;DHT22;39553;52.954;5.932;2023-07-08T17:45:40;33.00;4.20
53653;DHT22;39553;52.954;5.932;2023-07-08T17:48:21;33.10;3.70
53653;DHT22;39553;52.954;5.932;2023-07-08T17:50:48;33.10;4.10
53653;DHT22;39553;52.954;5.932;2023-07-08T17:53:14;33.10;4.20
53653;DHT22;39553;52.954;5.932;2023-07-08T17:55:40;33.10;4.20
53653;DHT22;39553;52.954;5.932;2023-07-08T17:58:11;32.90;4.00
53653;DHT22;39553;52.954;5.932;2023-07-08T18:00:38;32.70;4.90
53653;DHT22;39553;52.954;5.932;2023-07-08T18:03:03;32.50;5.20
53653;DHT22;39553;52.954;5.932;2023-07-08T18:05:31;32.40;5.10
53653;DHT22;39553;52.954;5.932;2023-07-08T18:07:58;32.20;5.70
53653;DHT22;39553;52.954;5.932;2023-07-08T18:10:26;32.00;5.90
53653;DHT22;39553;52.954;5.932;2023-07-08T18:12:54;31.90;5.90
53653;DHT22;39553;52.954;5.932;2023-07-08T18:15:25;31.90;6.10
53653;DHT22;39553;52.954;5.932;2023-07-08T18:17:53;31.80;7.20
53653;DHT22;39553;52.954;5.932;2023-07-08T18:20:20;32.00;8.20
53653;DHT22;39553;52.954;5.932;2023-07-08T18:22:48;32.50;8.40
53653;DHT22;39553;52.954;5.932;2023-07-08T18:25:19;33.00;8.10
53653;DHT22;39553;52.954;5.932;2023-07-08T18:27:46;33.40;7.50
53653;DHT22;39553;52.954;5.932;2023-07-08T18:30:14;33.60;7.10
53653;DHT22;39553;52.954;5.932;2023-07-08T18:32:41;33.90;6.70
53653;DHT22;39553;52.954;5.932;2023-07-08T18:35:27;33.80;6.50
53653;DHT22;39553;52.954;5.932;2023-07-08T18:37:54;33.50;6.40
53653;DHT22;39553;52.954;5.932;2023-07-08T18:40:43;33.30;7.10
53653;DHT22;39553;52.954;5.932;2023-07-08T18:43:18;33.20;7.40
53653;DHT22;39553;52.954;5.932;2023-07-08T18:45:46;33.00;7.60
53653;DHT22;39553;52.954;5.932;2023-07-08T18:48:13;32.90;7.50
53653;DHT22;39553;52.954;5.932;2023-07-08T18:50:40;32.70;7.80
53653;DHT22;39553;52.954;5.932;2023-07-08T18:53:16;32.40;8.20
53653;DHT22;39553;52.954;5.932;2023-07-08T18:55:44;32.20;8.60
53653;DHT22;39553;52.954;5.932;2023-07-08T18:58:11;32.00;9.70
53653;DHT22;39553;52.954;5.932;2023-07-08T19:00:37;31.80;10.50
53653;DHT22;39553;52.954;5.932;2023-07-08T19:05:49;31.50;12.10
53653;DHT22;39553;52.954;5.932;2023-07-08T19:08:17;31.40;12.20
53653;DHT22;39553;52.954;5.932;2023-07-08T19:10:43;31.20;12.30
53653;DHT22;39553;52.954;5.932;2023-07-08T19:13:18;31.10;12.90
53653;DHT22;39553;52.954;5.932;2023-07-08T19:15:44;31.00;12.90
53653;DHT22;39553;52.954;5.932;2023-07-08T19:18:10;30.90;13.20
53653;DHT22;39553;52.954;5.932;2023-07-08T19:20:38;30.80;13.50
53653;DHT22;39553;52.954;5.932;2023-07-08T19:23:15;30.70;14.50
53653;DHT22;39553;52.954;5.932;2023-07-08T19:25:42;30.60;14.90
53653;DHT22;39553;52.954;5.932;2023-07-08T19:28:09;30.60;15.50
53653;DHT22;39553;52.954;5.932;2023-07-08T19:30:36;30.40;15.60
53653;DHT22;39553;52.954;5.932;2023-07-08T19:33:04;30.30;16.00
53653;DHT22;39553;52.954;5.932;2023-07-08T19:35:38;30.20;17.00
53653;DHT22;39553;52.954;5.932;2023-07-08T19:38:05;30.10;16.90
53653;DHT22;39553;52.954;5.932;2023-07-08T19:40:32;30.00;17.60
53653;DHT22;39553;52.954;5.932;2023-07-08T19:42:58;29.80;18.40
53653;DHT22;39553;52.954;5.932;2023-07-08T19:45:26;29.70;19.30
53653;DHT22;39553;52.954;5.932;2023-07-08T19:47:54;29.60;20.70
53653;DHT22;39553;52.954;5.932;2023-07-08T19:50:22;29.40;21.50
53653;DHT22;39553;52.954;5.932;2023-07-08T19:52:49;29.30;22.80
53653;DHT22;39553;52.954;5.932;2023-07-08T19:55:15;29.20;24.00
53653;DHT22;39553;52.954;5.932;2023-07-08T20:00:41;29.00;26.00
53653;DHT22;39553;52.954;5.932;2023-07-08T20:03:13;28.80;27.20
53653;DHT22;39553;52.954;5.932;2023-07-08T20:05:40;28.70;27.90
53653;DHT22;39553;52.954;5.932;2023-07-08T20:08:26;28.60;28.40
53653;DHT22;39553;52.954;5.932;2023-07-08T20:10:53;28.50;29.90
53653;DHT22;39553;52.954;5.932;2023-07-08T20:13:21;28.40;30.70
53653;DHT22;39553;52.954;5.932;2023-07-08T20:15:46;28.30;32.20
53653;DHT22;39553;52.954;5.932;2023-07-08T20:18:13;28.20;33.10
53653;DHT22;39553;52.954;5.932;2023-07-08T20:20:40;28.20;33.80
53653;DHT22;39553;52.954;5.932;2023-07-08T20:23:13;28.10;34.80
53653;DHT22;39553;52.954;5.932;2023-07-08T20:25:41;28.00;36.20
53653;DHT22;39553;52.954;5.932;2023-07-08T20:28:09;27.90;37.30
53653;DHT22;39553;52.954;5.932;2023-07-08T20:30:36;27.80;37.80
53653;DHT22;39553;52.954;5.932;2023-07-08T20:33:02;27.70;38.90
53653;DHT22;39553;52.954;5.932;2023-07-08T20:35:28;27.70;38.40
53653;DHT22;39553;52.954;5.932;2023-07-08T20:37:55;27.60;38.00
53653;DHT22;39553;52.954;5.932;2023-07-08T20:40:24;27.50;38.50
53653;DHT22;39553;52.954;5.932;2023-07-08T20:42:50;27.50;39.20
53653;DHT22;39553;52.954;5.932;2023-07-08T20:45:27;27.50;39.90
53653;DHT22;39553;52.954;5.932;2023-07-08T20:47:54;27.40;40.40
53653;DHT22;39553;52.954;5.932;2023-07-08T20:50:22;27.40;40.80
53653;DHT22;39553;52.954;5.932;2023-07-08T20:52:50;27.30;41.10
53653;DHT22;39553;52.954;5.932;2023-07-08T20:55:18;27.30;41.10
53653;DHT22;39553;52.954;5.932;2023-07-08T20:57:45;27.30;40.60
53653;DHT22;39553;52.954;5.932;2023-07-08T21:00:26;27.20;40.60
53653;DHT22;39553;52.954;5.932;2023-07-08T21:02:53;27.20;41.10
53653;DHT22;39553;52.954;5.932;2023-07-08T21:05:19;27.10;40.80
53653;DHT22;39553;52.954;5.932;2023-07-08T21:07:46;27.10;40.90
53653;DHT22;39553;52.954;5.932;2023-07-08T21:10:20;27.00;41.00
53653;DHT22;39553;52.954;5.932;2023-07-08T21:12:47;26.90;41.20
53653;DHT22;39553;52.954;5.932;2023-07-08T21:15:14;26.90;40.80
53653;DHT22;39553;52.954;5.932;2023-07-08T21:17:41;26.80;40.80
53653;DHT22;39553;52.954;5.932;2023-07-08T21:20:21;26.80;40.70
53653;DHT22;39553;52.954;5.932;2023-07-08T21:22:48;26.70;40.60
53653;DHT22;39553;52.954;5.932;2023-07-08T21:25:15;26.70;40.70
53653;DHT22;39553;52.954;5.932;2023-07-08T21:27:42;26.60;40.80
53653;DHT22;39553;52.954;5.932;2023-07-08T21:32:43;26.50;41.10
53653;DHT22;39553;52.954;5.932;2023-07-08T21:35:09;26.50;40.60
53653;DHT22;39553;52.954;5.932;2023-07-08T21:37:38;26.50;39.80
53653;DHT22;39553;52.954;5.932;2023-07-08T21:40:19;26.40;39.70
53653;DHT22;39553;52.954;5.932;2023-07-08T21:42:46;26.40;38.60
53653;DHT22;39553;52.954;5.932;2023-07-08T21:45:24;26.30;38.30
53653;DHT22;39553;52.954;5.932;2023-07-08T21:47:50;26.30;38.60
53653;DHT22;39553;52.954;5.932;2023-07-08T21:50:16;26.20;38.70
53653;DHT22;39553;52.954;5.932;2023-07-08T21:52:42;26.10;38.30
53653;DHT22;39553;52.954;5.932;2023-07-08T21:55:19;26.20;38.70
53653;DHT22;39553;52.954;5.932;2023-07-08T21:57:45;26.10;38.40
53653;DHT22;39553;52.954;5.932;2023-07-08T22:00:12;26.10;38.00
53653;DHT22;39553;52.954;5.932;2023-07-08T22:02:50;26.10;37.30
53653;DHT22;39553;52.954;5.932;2023-07-08T22:05:19;26.10;37.20
53653;DHT22;39553;52.954;5.932;2023-07-08T22:07:45;26.00;37.20
53653;DHT22;39553;52.954;5.932;2023-07-08T22:10:21;25.90;36.90
53653;DHT22;39553;52.954;5.932;2023-07-08T22:12:48;25.90;36.50
53653;DHT22;39553;52.954;5.932;2023-07-08T22:15:21;25.90;36.50
53653;DHT22;39553;52.954;5.932;2023-07-08T22:17:48;25.80;36.40
53653;DHT22;39553;52.954;5.932;2023-07-08T22:20:15;25.80;36.40
53653;DHT22;39553;52.954;5.932;2023-07-08T22:22:43;25.70;35.80
53653;DHT22;39553;52.954;5.932;2023-07-08T22:25:22;25.60;35.70
53653;DHT22;39553;52.954;5.932;2023-07-08T22:27:48;25.60;35.60
53653;DHT22;39553;52.954;5.932;2023-07-08T22:30:14;25.50;34.80
53653;DHT22;39553;52.954;5.932;2023-07-08T22:32:42;25.40;34.50
53653;DHT22;39553;52.954;5.932;2023-07-08T22:35:21;25.40;34.20
53653;DHT22;39553;52.954;5.932;2023-07-08T22:37:48;25.40;34.00
53653;DHT22;39553;52.954;5.932;2023-07-08T22:40:14;25.30;33.80
53653;DHT22;39553;52.954;5.932;2023-07-08T22:42:40;25.30;33.40
53653;DHT22;39553;52.954;5.932;2023-07-08T22:45:16;25.30;33.30
53653;DHT22;39553;52.954;5.932;2023-07-08T22:47:43;25.20;33.40
53653;DHT22;39553;52.954;5.932;2023-07-08T22:50:17;25.20;33.70
53653;DHT22;39553;52.954;5.932;2023-07-08T22:52:44;25.20;33.60
53653;DHT22;39553;52.954;5.932;2023-07-08T22:55:17;25.20;33.70
53653;DHT22;39553;52.954;5.932;2023-07-08T22:57:52;25.10;33.60
53653;DHT22;39553;52.954;5.932;2023-07-08T23:00:28;25.10;33.70
53653;DHT22;39553;52.954;5.932;2023-07-08T23:02:54;25.00;33.30
53653;DHT22;39553;52.954;5.932;2023-07-08T23:05:26;25.00;33.20
53653;DHT22;39553;52.954;5.932;2023-07-08T23:07:52;25.00;33.30
53653;DHT22;39553;52.954;5.932;2023-07-08T23:10:18;25.00;33.40
53653;DHT22;39553;52.954;5.932;2023-07-08T23:12:44;25.00;33.80
53653;DHT22;39553;52.954;5.932;2023-07-08T23:15:10;25.00;34.30
53653;DHT22;39553;52.954;5.932;2023-07-08T23:17:41;24.90;34.00
53653;DHT22;39553;52.954;5.932;2023-07-08T23:20:25;24.90;34.20
53653;DHT22;39553;52.954;5.932;2023-07-08T23:22:51;24.90;34.20
53653;DHT22;39553;52.954;5.932;2023-07-08T23:25:17;24.90;34.20
53653;DHT22;39553;52.954;5.932;2023-07-08T23:27:43;24.80;34.20
53653;DHT22;39553;52.954;5.932;2023-07-08T23:30:18;24.80;34.50
53653;DHT22;39553;52.954;5.932;2023-07-08T23:32:44;24.80;34.70
53653;DHT22;39553;52.954;5.932;2023-07-08T23:35:11;24.80;34.50
53653;DHT22;39553;52.954;5.932;2023-07-08T23:37:38;24.70;34.40
53653;DHT22;39553;52.954;5.932;2023-07-08T23:40:13;24.70;35.30
53653;DHT22;39553;52.954;5.932;2023-07-08T23:42:40;24.60;34.70
53653;DHT22;39553;52.954;5.932;2023-07-08T23:45:06;24.60;35.10
53653;DHT22;39553;52.954;5.932;2023-07-08T23:47:33;24.50;35.40
53653;DHT22;39553;52.954;5.932;2023-07-08T23:49:59;24.50;35.60
53653;DHT22;39553;52.954;5.932;2023-07-08T23:52:24;24.50;35.90
53653;DHT22;39553;52.954;5.932;2023-07-08T23:54:50;24.40;35.60
53653;DHT22;39553;52.954;5.932;2023-07-08T23:57:20;24.40;36.90
53653;DHT22;39553;52.954;5.932;2023-07-08T23:59:49;24.30;36.30
